METAR Data
IDs: Format: Raw Decoded Include TAF

Data at: 0417 UTC 27 Jan 2021

PAMC 270353Z AUTO 32007KT 10SM CLR M24/M26 A3033 RMK AO2 SLP284 T12441261 TSNO $